sensor_id;sensor_type;location;lat;lon;timestamp;P1;durP1;ratioP1;P2;durP2;ratioP2
15293;SDS011;7748;52.474;13.454;2022-08-18T00:01:08;8.10;;;6.57;;
15293;SDS011;7748;52.474;13.454;2022-08-18T00:03:40;10.97;;;7.33;;
15293;SDS011;7748;52.474;13.454;2022-08-18T00:06:24;9.47;;;7.20;;
15293;SDS011;7748;52.474;13.454;2022-08-18T00:08:53;13.03;;;7.53;;
15293;SDS011;7748;52.474;13.454;2022-08-18T00:11:21;8.73;;;6.60;;
15293;SDS011;7748;52.474;13.454;2022-08-18T00:13:49;8.20;;;6.80;;
15293;SDS011;7748;52.474;13.454;2022-08-18T00:16:18;8.33;;;6.90;;
15293;SDS011;7748;52.474;13.454;2022-08-18T00:18:45;7.80;;;7.10;;
15293;SDS011;7748;52.474;13.454;2022-08-18T00:21:13;8.93;;;7.80;;
15293;SDS011;7748;52.474;13.454;2022-08-18T00:23:42;8.20;;;7.17;;
15293;SDS011;7748;52.474;13.454;2022-08-18T00:26:10;8.37;;;6.93;;
15293;SDS011;7748;52.474;13.454;2022-08-18T00:28:38;10.50;;;7.00;;
15293;SDS011;7748;52.474;13.454;2022-08-18T00:31:06;10.00;;;6.80;;
15293;SDS011;7748;52.474;13.454;2022-08-18T00:33:34;7.87;;;7.03;;
15293;SDS011;7748;52.474;13.454;2022-08-18T00:36:02;7.97;;;6.90;;
15293;SDS011;7748;52.474;13.454;2022-08-18T00:38:30;7.87;;;7.07;;
15293;SDS011;7748;52.474;13.454;2022-08-18T00:40:59;7.63;;;6.73;;
15293;SDS011;7748;52.474;13.454;2022-08-18T00:43:29;7.93;;;7.13;;
15293;SDS011;7748;52.474;13.454;2022-08-18T00:46:00;9.47;;;7.73;;
15293;SDS011;7748;52.474;13.454;2022-08-18T00:48:28;9.13;;;8.10;;
15293;SDS011;7748;52.474;13.454;2022-08-18T00:50:57;9.47;;;7.63;;
15293;SDS011;7748;52.474;13.454;2022-08-18T00:53:29;8.03;;;7.23;;
15293;SDS011;7748;52.474;13.454;2022-08-18T00:56:04;9.43;;;7.30;;
15293;SDS011;7748;52.474;13.454;2022-08-18T00:58:36;13.30;;;7.50;;
15293;SDS011;7748;52.474;13.454;2022-08-18T01:01:07;8.60;;;7.50;;
15293;SDS011;7748;52.474;13.454;2022-08-18T01:03:38;12.23;;;7.93;;
15293;SDS011;7748;52.474;13.454;2022-08-18T01:06:11;8.57;;;7.67;;
15293;SDS011;7748;52.474;13.454;2022-08-18T01:08:44;8.47;;;7.47;;
15293;SDS011;7748;52.474;13.454;2022-08-18T01:11:13;8.37;;;7.40;;
15293;SDS011;7748;52.474;13.454;2022-08-18T01:13:41;9.00;;;7.47;;
15293;SDS011;7748;52.474;13.454;2022-08-18T01:16:09;9.33;;;8.07;;
15293;SDS011;7748;52.474;13.454;2022-08-18T01:19:22;12.17;;;7.83;;
15293;SDS011;7748;52.474;13.454;2022-08-18T01:22:12;10.20;;;7.43;;
15293;SDS011;7748;52.474;13.454;2022-08-18T01:24:46;8.60;;;7.80;;
15293;SDS011;7748;52.474;13.454;2022-08-18T01:27:34;8.63;;;7.73;;
15293;SDS011;7748;52.474;13.454;2022-08-18T01:30:05;8.57;;;7.70;;
15293;SDS011;7748;52.474;13.454;2022-08-18T01:32:35;9.60;;;7.50;;
15293;SDS011;7748;52.474;13.454;2022-08-18T01:35:05;10.57;;;8.50;;
15293;SDS011;7748;52.474;13.454;2022-08-18T01:37:36;12.80;;;8.33;;
15293;SDS011;7748;52.474;13.454;2022-08-18T01:40:06;10.80;;;8.00;;
15293;SDS011;7748;52.474;13.454;2022-08-18T01:42:56;9.17;;;8.20;;
15293;SDS011;7748;52.474;13.454;2022-08-18T01:45:23;10.07;;;8.07;;
15293;SDS011;7748;52.474;13.454;2022-08-18T01:47:51;9.40;;;8.43;;
15293;SDS011;7748;52.474;13.454;2022-08-18T01:50:19;10.30;;;7.97;;
15293;SDS011;7748;52.474;13.454;2022-08-18T01:52:47;11.57;;;8.93;;
15293;SDS011;7748;52.474;13.454;2022-08-18T01:55:16;11.73;;;8.03;;
15293;SDS011;7748;52.474;13.454;2022-08-18T01:57:44;8.90;;;8.10;;
15293;SDS011;7748;52.474;13.454;2022-08-18T02:00:13;8.57;;;7.67;;
15293;SDS011;7748;52.474;13.454;2022-08-18T02:02:43;9.67;;;8.13;;
15293;SDS011;7748;52.474;13.454;2022-08-18T02:05:13;8.30;;;7.50;;
15293;SDS011;7748;52.474;13.454;2022-08-18T02:07:45;14.67;;;8.63;;
15293;SDS011;7748;52.474;13.454;2022-08-18T02:10:13;10.30;;;8.67;;
15293;SDS011;7748;52.474;13.454;2022-08-18T02:12:43;10.63;;;8.00;;
15293;SDS011;7748;52.474;13.454;2022-08-18T02:15:10;9.50;;;8.40;;
15293;SDS011;7748;52.474;13.454;2022-08-18T02:17:39;9.20;;;8.23;;
15293;SDS011;7748;52.474;13.454;2022-08-18T02:20:09;12.87;;;8.40;;
15293;SDS011;7748;52.474;13.454;2022-08-18T02:22:39;9.90;;;8.83;;
15293;SDS011;7748;52.474;13.454;2022-08-18T02:25:08;9.87;;;8.87;;
15293;SDS011;7748;52.474;13.454;2022-08-18T02:27:37;9.27;;;8.03;;
15293;SDS011;7748;52.474;13.454;2022-08-18T02:30:08;10.10;;;7.87;;
15293;SDS011;7748;52.474;13.454;2022-08-18T02:32:38;10.13;;;8.13;;
15293;SDS011;7748;52.474;13.454;2022-08-18T02:35:07;10.97;;;8.60;;
15293;SDS011;7748;52.474;13.454;2022-08-18T02:37:37;10.00;;;8.40;;
15293;SDS011;7748;52.474;13.454;2022-08-18T02:40:19;10.03;;;8.43;;
15293;SDS011;7748;52.474;13.454;2022-08-18T02:42:47;9.83;;;8.53;;
15293;SDS011;7748;52.474;13.454;2022-08-18T02:45:16;10.23;;;8.30;;
15293;SDS011;7748;52.474;13.454;2022-08-18T02:47:44;11.20;;;8.73;;
15293;SDS011;7748;52.474;13.454;2022-08-18T02:50:18;12.57;;;9.07;;
15293;SDS011;7748;52.474;13.454;2022-08-18T02:52:46;10.03;;;8.63;;
15293;SDS011;7748;52.474;13.454;2022-08-18T02:55:14;15.93;;;9.50;;
15293;SDS011;7748;52.474;13.454;2022-08-18T02:57:43;11.47;;;8.70;;
15293;SDS011;7748;52.474;13.454;2022-08-18T03:00:12;9.30;;;8.37;;
15293;SDS011;7748;52.474;13.454;2022-08-18T03:02:45;10.83;;;8.17;;
15293;SDS011;7748;52.474;13.454;2022-08-18T03:05:13;12.57;;;9.27;;
15293;SDS011;7748;52.474;13.454;2022-08-18T03:07:42;12.10;;;9.13;;
15293;SDS011;7748;52.474;13.454;2022-08-18T03:10:10;11.20;;;9.07;;
15293;SDS011;7748;52.474;13.454;2022-08-18T03:12:59;11.50;;;8.77;;
15293;SDS011;7748;52.474;13.454;2022-08-18T03:15:27;13.43;;;9.17;;
15293;SDS011;7748;52.474;13.454;2022-08-18T03:17:56;9.90;;;8.90;;
15293;SDS011;7748;52.474;13.454;2022-08-18T03:20:24;13.97;;;8.83;;
15293;SDS011;7748;52.474;13.454;2022-08-18T03:22:56;12.37;;;9.50;;
15293;SDS011;7748;52.474;13.454;2022-08-18T03:25:24;10.57;;;9.47;;
15293;SDS011;7748;52.474;13.454;2022-08-18T03:27:52;11.40;;;9.60;;
15293;SDS011;7748;52.474;13.454;2022-08-18T03:30:19;11.23;;;8.77;;
15293;SDS011;7748;52.474;13.454;2022-08-18T03:32:48;11.87;;;8.90;;
15293;SDS011;7748;52.474;13.454;2022-08-18T03:35:17;13.73;;;10.00;;
15293;SDS011;7748;52.474;13.454;2022-08-18T03:37:45;14.17;;;10.17;;
15293;SDS011;7748;52.474;13.454;2022-08-18T03:40:13;11.13;;;9.93;;
15293;SDS011;7748;52.474;13.454;2022-08-18T03:42:41;14.47;;;10.33;;
15293;SDS011;7748;52.474;13.454;2022-08-18T03:45:09;15.10;;;10.30;;
15293;SDS011;7748;52.474;13.454;2022-08-18T03:47:43;12.37;;;9.40;;
15293;SDS011;7748;52.474;13.454;2022-08-18T03:50:11;12.73;;;10.37;;
15293;SDS011;7748;52.474;13.454;2022-08-18T03:52:40;26.47;;;11.77;;
15293;SDS011;7748;52.474;13.454;2022-08-18T03:55:08;13.00;;;9.13;;
15293;SDS011;7748;52.474;13.454;2022-08-18T03:57:36;12.60;;;9.37;;
15293;SDS011;7748;52.474;13.454;2022-08-18T04:00:09;12.17;;;9.63;;
15293;SDS011;7748;52.474;13.454;2022-08-18T04:02:38;15.77;;;10.67;;
15293;SDS011;7748;52.474;13.454;2022-08-18T04:05:07;15.30;;;10.83;;
15293;SDS011;7748;52.474;13.454;2022-08-18T04:07:36;14.37;;;10.13;;
15293;SDS011;7748;52.474;13.454;2022-08-18T04:10:05;15.90;;;10.03;;
15293;SDS011;7748;52.474;13.454;2022-08-18T04:12:45;12.80;;;9.17;;
15293;SDS011;7748;52.474;13.454;2022-08-18T04:15:13;15.93;;;10.57;;
15293;SDS011;7748;52.474;13.454;2022-08-18T04:17:41;12.23;;;9.40;;
15293;SDS011;7748;52.474;13.454;2022-08-18T04:20:31;12.80;;;10.53;;
15293;SDS011;7748;52.474;13.454;2022-08-18T04:22:59;11.80;;;10.27;;
15293;SDS011;7748;52.474;13.454;2022-08-18T04:25:28;18.47;;;11.97;;
15293;SDS011;7748;52.474;13.454;2022-08-18T04:27:59;22.87;;;12.17;;
15293;SDS011;7748;52.474;13.454;2022-08-18T04:30:29;18.20;;;10.60;;
15293;SDS011;7748;52.474;13.454;2022-08-18T04:32:57;27.37;;;12.50;;
15293;SDS011;7748;52.474;13.454;2022-08-18T04:35:27;24.50;;;12.17;;
15293;SDS011;7748;52.474;13.454;2022-08-18T04:37:55;22.13;;;10.50;;
15293;SDS011;7748;52.474;13.454;2022-08-18T04:40:22;12.73;;;10.20;;
15293;SDS011;7748;52.474;13.454;2022-08-18T04:42:53;20.30;;;11.00;;
15293;SDS011;7748;52.474;13.454;2022-08-18T04:45:21;19.10;;;11.13;;
15293;SDS011;7748;52.474;13.454;2022-08-18T04:47:49;15.13;;;10.43;;
15293;SDS011;7748;52.474;13.454;2022-08-18T04:50:17;15.30;;;10.07;;
15293;SDS011;7748;52.474;13.454;2022-08-18T04:52:50;14.47;;;10.53;;
15293;SDS011;7748;52.474;13.454;2022-08-18T04:55:35;18.27;;;11.57;;
15293;SDS011;7748;52.474;13.454;2022-08-18T04:58:04;16.63;;;11.03;;
15293;SDS011;7748;52.474;13.454;2022-08-18T05:00:35;15.20;;;10.53;;
15293;SDS011;7748;52.474;13.454;2022-08-18T05:03:02;15.87;;;10.73;;
15293;SDS011;7748;52.474;13.454;2022-08-18T05:05:30;16.67;;;11.67;;
15293;SDS011;7748;52.474;13.454;2022-08-18T05:07:58;12.70;;;10.53;;
15293;SDS011;7748;52.474;13.454;2022-08-18T05:10:26;12.20;;;10.23;;
15293;SDS011;7748;52.474;13.454;2022-08-18T05:12:53;12.20;;;9.23;;
15293;SDS011;7748;52.474;13.454;2022-08-18T05:15:23;13.23;;;10.27;;
15293;SDS011;7748;52.474;13.454;2022-08-18T05:17:52;16.57;;;11.03;;
15293;SDS011;7748;52.474;13.454;2022-08-18T05:20:20;17.60;;;12.27;;
15293;SDS011;7748;52.474;13.454;2022-08-18T05:22:48;16.27;;;9.80;;
15293;SDS011;7748;52.474;13.454;2022-08-18T05:25:16;15.20;;;10.67;;
15293;SDS011;7748;52.474;13.454;2022-08-18T05:27:58;11.50;;;9.97;;
15293;SDS011;7748;52.474;13.454;2022-08-18T05:30:44;16.13;;;10.27;;
15293;SDS011;7748;52.474;13.454;2022-08-18T05:33:13;17.83;;;10.87;;
15293;SDS011;7748;52.474;13.454;2022-08-18T05:35:42;16.80;;;10.63;;
15293;SDS011;7748;52.474;13.454;2022-08-18T05:38:16;14.70;;;10.17;;
15293;SDS011;7748;52.474;13.454;2022-08-18T05:41:03;13.93;;;10.60;;
15293;SDS011;7748;52.474;13.454;2022-08-18T05:43:39;13.13;;;10.17;;
15293;SDS011;7748;52.474;13.454;2022-08-18T05:46:18;14.90;;;12.33;;
15293;SDS011;7748;52.474;13.454;2022-08-18T05:48:52;14.83;;;10.27;;
15293;SDS011;7748;52.474;13.454;2022-08-18T05:51:22;13.73;;;10.50;;
15293;SDS011;7748;52.474;13.454;2022-08-18T05:54:03;14.73;;;10.40;;
15293;SDS011;7748;52.474;13.454;2022-08-18T05:56:50;16.27;;;9.80;;
15293;SDS011;7748;52.474;13.454;2022-08-18T05:59:19;12.57;;;10.07;;
15293;SDS011;7748;52.474;13.454;2022-08-18T06:02:02;16.23;;;10.10;;
15293;SDS011;7748;52.474;13.454;2022-08-18T06:04:42;18.87;;;11.03;;
15293;SDS011;7748;52.474;13.454;2022-08-18T06:07:14;11.90;;;10.30;;
15293;SDS011;7748;52.474;13.454;2022-08-18T06:09:58;14.20;;;10.53;;
15293;SDS011;7748;52.474;13.454;2022-08-18T06:12:27;18.27;;;10.07;;
15293;SDS011;7748;52.474;13.454;2022-08-18T06:15:04;13.77;;;10.60;;
15293;SDS011;7748;52.474;13.454;2022-08-18T06:17:50;12.17;;;9.30;;
15293;SDS011;7748;52.474;13.454;2022-08-18T06:23:24;19.63;;;11.40;;
15293;SDS011;7748;52.474;13.454;2022-08-18T06:26:01;12.63;;;10.53;;
15293;SDS011;7748;52.474;13.454;2022-08-18T06:28:43;13.60;;;9.90;;
15293;SDS011;7748;52.474;13.454;2022-08-18T06:31:24;12.93;;;11.00;;
15293;SDS011;7748;52.474;13.454;2022-08-18T06:34:02;15.53;;;11.20;;
15293;SDS011;7748;52.474;13.454;2022-08-18T06:36:45;20.23;;;11.60;;
15293;SDS011;7748;52.474;13.454;2022-08-18T06:39:22;15.00;;;10.37;;
15293;SDS011;7748;52.474;13.454;2022-08-18T06:41:55;20.50;;;11.10;;
15293;SDS011;7748;52.474;13.454;2022-08-18T06:44:25;13.70;;;10.77;;
15293;SDS011;7748;52.474;13.454;2022-08-18T06:46:58;14.23;;;11.10;;
15293;SDS011;7748;52.474;13.454;2022-08-18T06:49:36;14.63;;;11.13;;
15293;SDS011;7748;52.474;13.454;2022-08-18T06:52:18;13.90;;;11.20;;
15293;SDS011;7748;52.474;13.454;2022-08-18T06:54:48;15.27;;;10.87;;
15293;SDS011;7748;52.474;13.454;2022-08-18T06:57:21;16.70;;;10.73;;
15293;SDS011;7748;52.474;13.454;2022-08-18T06:59:55;12.57;;;9.67;;
15293;SDS011;7748;52.474;13.454;2022-08-18T07:02:31;15.97;;;11.17;;
15293;SDS011;7748;52.474;13.454;2022-08-18T07:05:16;17.90;;;10.40;;
15293;SDS011;7748;52.474;13.454;2022-08-18T07:08:05;18.40;;;10.37;;
15293;SDS011;7748;52.474;13.454;2022-08-18T07:10:38;30.87;;;16.60;;
15293;SDS011;7748;52.474;13.454;2022-08-18T07:13:16;23.50;;;11.20;;
15293;SDS011;7748;52.474;13.454;2022-08-18T07:15:46;14.20;;;10.83;;
15293;SDS011;7748;52.474;13.454;2022-08-18T07:18:20;17.20;;;10.03;;
15293;SDS011;7748;52.474;13.454;2022-08-18T07:20:52;15.50;;;10.37;;
15293;SDS011;7748;52.474;13.454;2022-08-18T07:23:24;15.30;;;10.37;;
15293;SDS011;7748;52.474;13.454;2022-08-18T07:26:01;19.93;;;10.80;;
15293;SDS011;7748;52.474;13.454;2022-08-18T07:28:35;16.73;;;10.63;;
15293;SDS011;7748;52.474;13.454;2022-08-18T07:31:07;18.60;;;10.93;;
15293;SDS011;7748;52.474;13.454;2022-08-18T07:33:44;18.03;;;10.80;;
15293;SDS011;7748;52.474;13.454;2022-08-18T07:36:18;15.63;;;11.13;;
15293;SDS011;7748;52.474;13.454;2022-08-18T07:38:50;14.50;;;10.27;;
15293;SDS011;7748;52.474;13.454;2022-08-18T07:41:23;14.60;;;10.47;;
15293;SDS011;7748;52.474;13.454;2022-08-18T07:43:59;14.50;;;10.93;;
15293;SDS011;7748;52.474;13.454;2022-08-18T07:46:40;18.77;;;11.97;;
15293;SDS011;7748;52.474;13.454;2022-08-18T07:49:15;21.20;;;11.70;;
15293;SDS011;7748;52.474;13.454;2022-08-18T07:51:51;18.60;;;10.47;;
15293;SDS011;7748;52.474;13.454;2022-08-18T07:54:27;16.70;;;10.77;;
15293;SDS011;7748;52.474;13.454;2022-08-18T07:57:23;23.77;;;12.47;;
15293;SDS011;7748;52.474;13.454;2022-08-18T08:00:09;14.27;;;11.23;;
15293;SDS011;7748;52.474;13.454;2022-08-18T08:03:05;17.80;;;11.37;;
15293;SDS011;7748;52.474;13.454;2022-08-18T08:05:49;18.90;;;10.30;;
15293;SDS011;7748;52.474;13.454;2022-08-18T08:08:24;18.57;;;11.33;;
15293;SDS011;7748;52.474;13.454;2022-08-18T08:11:02;18.20;;;11.43;;
15293;SDS011;7748;52.474;13.454;2022-08-18T08:13:41;20.60;;;10.63;;
15293;SDS011;7748;52.474;13.454;2022-08-18T08:16:23;18.40;;;11.03;;
15293;SDS011;7748;52.474;13.454;2022-08-18T08:19:02;20.23;;;10.80;;
15293;SDS011;7748;52.474;13.454;2022-08-18T08:21:39;19.03;;;10.23;;
15293;SDS011;7748;52.474;13.454;2022-08-18T08:24:21;16.30;;;11.77;;
15293;SDS011;7748;52.474;13.454;2022-08-18T08:26:57;16.70;;;10.60;;
15293;SDS011;7748;52.474;13.454;2022-08-18T08:29:34;14.93;;;10.53;;
15293;SDS011;7748;52.474;13.454;2022-08-18T08:32:10;14.90;;;10.27;;
15293;SDS011;7748;52.474;13.454;2022-08-18T08:34:43;16.27;;;11.33;;
15293;SDS011;7748;52.474;13.454;2022-08-18T08:37:26;15.27;;;11.13;;
15293;SDS011;7748;52.474;13.454;2022-08-18T08:40:02;21.97;;;11.40;;
15293;SDS011;7748;52.474;13.454;2022-08-18T08:42:36;14.30;;;10.93;;
15293;SDS011;7748;52.474;13.454;2022-08-18T08:45:10;12.70;;;9.97;;
15293;SDS011;7748;52.474;13.454;2022-08-18T08:47:44;15.53;;;10.70;;
15293;SDS011;7748;52.474;13.454;2022-08-18T08:50:34;16.40;;;11.17;;
15293;SDS011;7748;52.474;13.454;2022-08-18T08:53:10;19.13;;;10.77;;
15293;SDS011;7748;52.474;13.454;2022-08-18T08:55:48;13.40;;;9.63;;
15293;SDS011;7748;52.474;13.454;2022-08-18T08:58:18;24.27;;;10.60;;
15293;SDS011;7748;52.474;13.454;2022-08-18T09:00:51;15.10;;;10.63;;
15293;SDS011;7748;52.474;13.454;2022-08-18T09:03:23;17.23;;;9.87;;
15293;SDS011;7748;52.474;13.454;2022-08-18T09:06:00;31.77;;;19.83;;
15293;SDS011;7748;52.474;13.454;2022-08-18T09:08:40;14.10;;;10.00;;
15293;SDS011;7748;52.474;13.454;2022-08-18T09:11:24;17.73;;;11.47;;
15293;SDS011;7748;52.474;13.454;2022-08-18T09:14:17;18.63;;;11.27;;
15293;SDS011;7748;52.474;13.454;2022-08-18T09:17:09;13.43;;;10.67;;
15293;SDS011;7748;52.474;13.454;2022-08-18T09:20:03;16.83;;;10.77;;
15293;SDS011;7748;52.474;13.454;2022-08-18T09:22:55;20.17;;;10.30;;
15293;SDS011;7748;52.474;13.454;2022-08-18T09:25:43;15.93;;;10.30;;
15293;SDS011;7748;52.474;13.454;2022-08-18T09:28:14;12.57;;;9.67;;
15293;SDS011;7748;52.474;13.454;2022-08-18T09:30:51;15.03;;;10.27;;
15293;SDS011;7748;52.474;13.454;2022-08-18T09:33:51;15.40;;;10.30;;
15293;SDS011;7748;52.474;13.454;2022-08-18T09:36:42;22.40;;;11.33;;
15293;SDS011;7748;52.474;13.454;2022-08-18T09:39:25;17.63;;;9.67;;
15293;SDS011;7748;52.474;13.454;2022-08-18T09:42:26;19.40;;;9.70;;
15293;SDS011;7748;52.474;13.454;2022-08-18T09:48:26;14.60;;;9.40;;
15293;SDS011;7748;52.474;13.454;2022-08-18T09:54:10;11.43;;;9.30;;
15293;SDS011;7748;52.474;13.454;2022-08-18T10:03:14;15.13;;;9.90;;
15293;SDS011;7748;52.474;13.454;2022-08-18T10:06:11;16.57;;;11.13;;
15293;SDS011;7748;52.474;13.454;2022-08-18T10:09:00;14.63;;;9.90;;
15293;SDS011;7748;52.474;13.454;2022-08-18T10:12:09;20.10;;;9.10;;
15293;SDS011;7748;52.474;13.454;2022-08-18T10:15:14;12.93;;;9.13;;
15293;SDS011;7748;52.474;13.454;2022-08-18T10:18:07;12.10;;;8.57;;
15293;SDS011;7748;52.474;13.454;2022-08-18T10:20:48;10.90;;;8.20;;
15293;SDS011;7748;52.474;13.454;2022-08-18T10:29:46;13.07;;;8.53;;
15293;SDS011;7748;52.474;13.454;2022-08-18T10:32:34;11.33;;;8.13;;
15293;SDS011;7748;52.474;13.454;2022-08-18T10:38:37;16.23;;;9.02;;
15293;SDS011;7748;52.474;13.454;2022-08-18T10:41:22;11.73;;;8.00;;
15293;SDS011;7748;52.474;13.454;2022-08-18T10:43:56;17.50;;;10.10;;
15293;SDS011;7748;52.474;13.454;2022-08-18T10:46:28;14.07;;;8.73;;
15293;SDS011;7748;52.474;13.454;2022-08-18T10:49:14;13.00;;;7.45;;
15293;SDS011;7748;52.474;13.454;2022-08-18T10:52:05;8.52;;;7.22;;
15293;SDS011;7748;52.474;13.454;2022-08-18T10:54:53;17.10;;;8.43;;
15293;SDS011;7748;52.474;13.454;2022-08-18T10:57:49;14.00;;;7.55;;
15293;SDS011;7748;52.474;13.454;2022-08-18T11:00:58;10.45;;;7.80;;
15293;SDS011;7748;52.474;13.454;2022-08-18T11:03:37;9.60;;;6.95;;
15293;SDS011;7748;52.474;13.454;2022-08-18T11:06:24;11.50;;;7.22;;
15293;SDS011;7748;52.474;13.454;2022-08-18T11:08:55;8.27;;;7.20;;
15293;SDS011;7748;52.474;13.454;2022-08-18T11:11:27;7.72;;;6.47;;
15293;SDS011;7748;52.474;13.454;2022-08-18T11:14:35;7.57;;;6.85;;
15293;SDS011;7748;52.474;13.454;2022-08-18T11:17:23;8.13;;;6.97;;
15293;SDS011;7748;52.474;13.454;2022-08-18T11:20:00;12.60;;;7.38;;
15293;SDS011;7748;52.474;13.454;2022-08-18T11:22:33;12.85;;;8.00;;
15293;SDS011;7748;52.474;13.454;2022-08-18T11:25:18;10.10;;;7.72;;
15293;SDS011;7748;52.474;13.454;2022-08-18T11:27:54;11.85;;;7.05;;
15293;SDS011;7748;52.474;13.454;2022-08-18T11:30:24;9.93;;;5.93;;
15293;SDS011;7748;52.474;13.454;2022-08-18T11:32:56;6.40;;;5.68;;
15293;SDS011;7748;52.474;13.454;2022-08-18T11:35:29;9.52;;;5.35;;
15293;SDS011;7748;52.474;13.454;2022-08-18T11:37:59;11.15;;;6.03;;
15293;SDS011;7748;52.474;13.454;2022-08-18T11:40:32;8.60;;;6.47;;
15293;SDS011;7748;52.474;13.454;2022-08-18T11:43:24;11.45;;;5.70;;
15293;SDS011;7748;52.474;13.454;2022-08-18T11:46:10;8.73;;;6.57;;
15293;SDS011;7748;52.474;13.454;2022-08-18T11:48:43;8.68;;;5.57;;
15293;SDS011;7748;52.474;13.454;2022-08-18T11:51:20;6.35;;;4.88;;
15293;SDS011;7748;52.474;13.454;2022-08-18T11:53:53;7.63;;;6.90;;
15293;SDS011;7748;52.474;13.454;2022-08-18T11:56:27;10.93;;;6.05;;
15293;SDS011;7748;52.474;13.454;2022-08-18T12:02:24;9.07;;;5.20;;
15293;SDS011;7748;52.474;13.454;2022-08-18T12:04:54;8.18;;;4.82;;
15293;SDS011;7748;52.474;13.454;2022-08-18T12:07:35;15.25;;;7.10;;
15293;SDS011;7748;52.474;13.454;2022-08-18T12:10:24;5.70;;;4.68;;
15293;SDS011;7748;52.474;13.454;2022-08-18T12:12:56;6.82;;;4.97;;
15293;SDS011;7748;52.474;13.454;2022-08-18T12:15:29;13.77;;;5.93;;
15293;SDS011;7748;52.474;13.454;2022-08-18T12:18:30;5.47;;;4.90;;
15293;SDS011;7748;52.474;13.454;2022-08-18T12:20:59;8.25;;;5.40;;
15293;SDS011;7748;52.474;13.454;2022-08-18T12:23:28;5.68;;;5.18;;
15293;SDS011;7748;52.474;13.454;2022-08-18T12:26:10;7.82;;;5.65;;
15293;SDS011;7748;52.474;13.454;2022-08-18T12:28:59;6.93;;;5.43;;
15293;SDS011;7748;52.474;13.454;2022-08-18T12:31:28;9.25;;;5.75;;
15293;SDS011;7748;52.474;13.454;2022-08-18T12:34:16;6.68;;;5.63;;
15293;SDS011;7748;52.474;13.454;2022-08-18T12:36:52;7.53;;;5.57;;
15293;SDS011;7748;52.474;13.454;2022-08-18T12:39:22;6.53;;;5.88;;
15293;SDS011;7748;52.474;13.454;2022-08-18T12:41:50;8.50;;;5.00;;
15293;SDS011;7748;52.474;13.454;2022-08-18T12:44:20;6.07;;;5.47;;
15293;SDS011;7748;52.474;13.454;2022-08-18T12:46:52;9.80;;;5.35;;
15293;SDS011;7748;52.474;13.454;2022-08-18T12:49:21;7.40;;;5.40;;
15293;SDS011;7748;52.474;13.454;2022-08-18T12:51:52;11.00;;;6.07;;
15293;SDS011;7748;52.474;13.454;2022-08-18T12:54:21;14.25;;;6.20;;
15293;SDS011;7748;52.474;13.454;2022-08-18T12:56:51;13.10;;;6.20;;
15293;SDS011;7748;52.474;13.454;2022-08-18T12:59:24;8.00;;;6.47;;
15293;SDS011;7748;52.474;13.454;2022-08-18T13:01:57;9.32;;;5.63;;
15293;SDS011;7748;52.474;13.454;2022-08-18T13:04:26;7.40;;;5.57;;
15293;SDS011;7748;52.474;13.454;2022-08-18T13:06:56;9.45;;;5.78;;
15293;SDS011;7748;52.474;13.454;2022-08-18T13:09:32;6.18;;;5.30;;
15293;SDS011;7748;52.474;13.454;2022-08-18T13:12:19;6.82;;;5.80;;
15293;SDS011;7748;52.474;13.454;2022-08-18T13:14:50;7.03;;;5.32;;
15293;SDS011;7748;52.474;13.454;2022-08-18T13:17:20;6.68;;;5.55;;
15293;SDS011;7748;52.474;13.454;2022-08-18T13:19:59;12.55;;;7.45;;
15293;SDS011;7748;52.474;13.454;2022-08-18T13:22:28;7.43;;;6.15;;
15293;SDS011;7748;52.474;13.454;2022-08-18T13:24:58;8.13;;;5.75;;
15293;SDS011;7748;52.474;13.454;2022-08-18T13:27:26;9.23;;;5.35;;
15293;SDS011;7748;52.474;13.454;2022-08-18T13:30:00;14.48;;;7.70;;
15293;SDS011;7748;52.474;13.454;2022-08-18T13:32:48;8.65;;;6.35;;
15293;SDS011;7748;52.474;13.454;2022-08-18T13:35:26;8.55;;;6.53;;
15293;SDS011;7748;52.474;13.454;2022-08-18T13:38:00;7.30;;;5.55;;
15293;SDS011;7748;52.474;13.454;2022-08-18T13:40:46;8.05;;;5.55;;
15293;SDS011;7748;52.474;13.454;2022-08-18T13:43:15;5.82;;;5.20;;
15293;SDS011;7748;52.474;13.454;2022-08-18T13:45:44;12.68;;;6.45;;
15293;SDS011;7748;52.474;13.454;2022-08-18T13:48:21;9.48;;;5.88;;
15293;SDS011;7748;52.474;13.454;2022-08-18T13:50:49;7.38;;;6.35;;
15293;SDS011;7748;52.474;13.454;2022-08-18T13:53:21;8.05;;;6.25;;
15293;SDS011;7748;52.474;13.454;2022-08-18T13:55:51;6.70;;;6.10;;
15293;SDS011;7748;52.474;13.454;2022-08-18T13:58:19;8.48;;;7.13;;
15293;SDS011;7748;52.474;13.454;2022-08-18T14:00:48;12.02;;;6.65;;
15293;SDS011;7748;52.474;13.454;2022-08-18T14:03:19;11.75;;;6.80;;
15293;SDS011;7748;52.474;13.454;2022-08-18T14:06:08;8.20;;;6.82;;
15293;SDS011;7748;52.474;13.454;2022-08-18T14:08:39;6.25;;;5.65;;
15293;SDS011;7748;52.474;13.454;2022-08-18T14:11:07;11.93;;;9.25;;
15293;SDS011;7748;52.474;13.454;2022-08-18T14:13:35;13.38;;;9.90;;
15293;SDS011;7748;52.474;13.454;2022-08-18T14:16:10;17.50;;;10.55;;
15293;SDS011;7748;52.474;13.454;2022-08-18T14:18:44;12.15;;;7.90;;
15293;SDS011;7748;52.474;13.454;2022-08-18T14:21:35;9.73;;;8.25;;
15293;SDS011;7748;52.474;13.454;2022-08-18T14:24:26;8.60;;;7.70;;
15293;SDS011;7748;52.474;13.454;2022-08-18T14:27:16;10.43;;;7.22;;
15293;SDS011;7748;52.474;13.454;2022-08-18T14:29:45;9.70;;;7.43;;
15293;SDS011;7748;52.474;13.454;2022-08-18T14:32:18;10.60;;;7.63;;
15293;SDS011;7748;52.474;13.454;2022-08-18T14:34:55;8.43;;;7.10;;
15293;SDS011;7748;52.474;13.454;2022-08-18T14:37:44;7.57;;;6.78;;
15293;SDS011;7748;52.474;13.454;2022-08-18T14:40:13;11.75;;;7.30;;
15293;SDS011;7748;52.474;13.454;2022-08-18T14:42:41;8.15;;;7.32;;
15293;SDS011;7748;52.474;13.454;2022-08-18T14:45:20;11.70;;;6.88;;
15293;SDS011;7748;52.474;13.454;2022-08-18T14:48:02;9.05;;;6.72;;
15293;SDS011;7748;52.474;13.454;2022-08-18T14:50:36;7.63;;;6.93;;
15293;SDS011;7748;52.474;13.454;2022-08-18T14:53:10;10.48;;;7.10;;
15293;SDS011;7748;52.474;13.454;2022-08-18T14:55:40;8.50;;;7.10;;
15293;SDS011;7748;52.474;13.454;2022-08-18T14:58:08;10.52;;;6.85;;
15293;SDS011;7748;52.474;13.454;2022-08-18T15:00:44;10.85;;;7.20;;
15293;SDS011;7748;52.474;13.454;2022-08-18T15:03:21;12.35;;;7.30;;
15293;SDS011;7748;52.474;13.454;2022-08-18T15:05:56;16.58;;;12.98;;
15293;SDS011;7748;52.474;13.454;2022-08-18T15:08:25;8.18;;;6.82;;
15293;SDS011;7748;52.474;13.454;2022-08-18T15:10:53;10.25;;;6.88;;
15293;SDS011;7748;52.474;13.454;2022-08-18T15:13:22;7.97;;;5.65;;
15293;SDS011;7748;52.474;13.454;2022-08-18T15:15:51;13.43;;;6.93;;
15293;SDS011;7748;52.474;13.454;2022-08-18T15:18:28;9.50;;;6.50;;
15293;SDS011;7748;52.474;13.454;2022-08-18T15:20:56;7.90;;;6.20;;
15293;SDS011;7748;52.474;13.454;2022-08-18T15:23:59;6.85;;;6.10;;
15293;SDS011;7748;52.474;13.454;2022-08-18T15:26:45;7.05;;;6.35;;
15293;SDS011;7748;52.474;13.454;2022-08-18T15:29:17;11.48;;;8.57;;
15293;SDS011;7748;52.474;13.454;2022-08-18T15:31:53;8.18;;;6.07;;
15293;SDS011;7748;52.474;13.454;2022-08-18T15:34:31;10.00;;;6.00;;
15293;SDS011;7748;52.474;13.454;2022-08-18T15:37:11;9.27;;;6.07;;
15293;SDS011;7748;52.474;13.454;2022-08-18T15:39:39;8.95;;;5.90;;
15293;SDS011;7748;52.474;13.454;2022-08-18T15:42:09;7.80;;;6.78;;
15293;SDS011;7748;52.474;13.454;2022-08-18T15:44:38;8.32;;;6.35;;
15293;SDS011;7748;52.474;13.454;2022-08-18T15:47:10;12.35;;;6.65;;
15293;SDS011;7748;52.474;13.454;2022-08-18T15:49:39;10.43;;;6.60;;